Snake River, Canada
Current Conditions -  °F | °C
As of 9:00 AM on Sunday 23 Nov 2014 (Local Time) from CYYE Reporting Station
Overcast Overcast  
Wind Chill:   Ceiling: 8000
Heat Index:   Visibility: 15mi
Dew Point: -4°   Wind: 3mph
Humidity: 85%   Direction: 140°SE
Pressure: 29.76"   Gusts: NA
Location:  59.04°N, 122.45°W
Report Text: CYYE 231600Z 14003KT 15SM SCT020 OVC080 M18/M20 A2976 RMK SC4AC4 SLP117
Loading
Personal Weather Stations






























Interactive Weather Map New forecast layout! Learn more

10-Day Weather Forecast

Advertisements
Track Severe Weather on mobile